createdAt,value
2023-01-04T03:59:06.573Z,460.00
2023-01-04T04:00:06.678Z,444.00
2023-01-04T04:01:06.934Z,445.00
2023-01-04T04:02:06.985Z,441.00
2023-01-04T04:03:07.078Z,443.00
2023-01-04T04:04:07.235Z,440.00
2023-01-04T04:05:07.364Z,439.00
2023-01-04T04:06:07.476Z,438.00
2023-01-04T04:07:07.566Z,438.00
2023-01-04T04:08:07.717Z,438.00
2023-01-04T04:09:07.864Z,438.00
2023-01-04T04:10:08.000Z,436.00
2023-01-04T04:11:08.154Z,436.00
2023-01-04T04:12:08.311Z,438.00
2023-01-04T04:13:08.455Z,442.00
2023-01-04T04:14:08.592Z,442.00
2023-01-04T04:15:08.750Z,441.00
2023-01-04T04:16:08.951Z,440.00
2023-01-04T04:17:09.003Z,438.00
2023-01-04T04:18:09.148Z,436.00
2023-01-04T04:19:09.418Z,434.00
2023-01-04T04:20:09.427Z,432.00
2023-01-04T04:21:09.571Z,433.00
2023-01-04T04:22:09.722Z,433.00
2023-01-04T04:23:09.902Z,433.00
2023-01-04T04:24:10.002Z,434.00
2023-01-04T04:25:10.142Z,432.00
2023-01-04T04:26:10.278Z,430.00
2023-01-04T04:27:10.435Z,429.00
2023-01-04T04:28:10.573Z,430.00
2023-01-04T04:29:10.714Z,428.00
2023-01-04T04:30:10.850Z,428.00
2023-01-04T04:31:11.027Z,428.00
2023-01-04T04:32:11.248Z,427.00
2023-01-04T04:33:11.311Z,429.00
2023-01-04T04:34:11.440Z,430.00
2023-01-04T04:35:11.599Z,429.00
2023-01-04T04:36:11.723Z,429.00
2023-01-04T04:37:11.880Z,428.00
2023-01-04T04:38:12.030Z,426.00
2023-01-04T04:39:12.219Z,425.00
2023-01-04T04:40:12.326Z,425.00
2023-01-04T04:41:12.454Z,427.00
2023-01-04T04:42:12.597Z,429.00
2023-01-04T04:43:12.721Z,429.00
2023-01-04T04:44:12.881Z,429.00
2023-01-04T04:45:13.005Z,428.00
2023-01-04T04:46:13.169Z,431.00
2023-01-04T04:47:13.289Z,430.00
2023-01-04T04:48:13.424Z,430.00
2023-01-04T04:49:13.581Z,429.00
2023-01-04T04:50:13.693Z,432.00
2023-01-04T04:51:13.906Z,431.00
2023-01-04T04:52:13.996Z,430.00
2023-01-04T04:53:14.115Z,430.00
2023-01-04T04:54:14.253Z,429.00
2023-01-04T04:55:14.391Z,430.00
2023-01-04T04:56:14.517Z,428.00
2023-01-04T04:57:14.672Z,428.00
2023-01-04T04:58:14.807Z,429.00
2023-01-04T04:59:14.944Z,428.00
2023-01-04T05:00:15.068Z,425.00
2023-01-04T05:01:15.302Z,423.00
2023-01-04T05:02:15.580Z,421.00
2023-01-04T05:03:15.546Z,423.00
2023-01-04T05:04:15.587Z,423.00
2023-01-04T05:05:15.747Z,423.00
2023-01-04T05:06:15.879Z,422.00
2023-01-04T05:07:16.028Z,427.00
2023-01-04T05:08:16.154Z,427.00
2023-01-04T05:09:16.303Z,426.00
2023-01-04T05:10:16.453Z,428.00
2023-01-04T05:11:16.573Z,426.00
2023-01-04T05:12:16.705Z,425.00
2023-01-04T05:13:16.859Z,425.00
2023-01-04T05:14:16.979Z,425.00
2023-01-04T05:15:17.138Z,424.00
2023-01-04T05:16:17.298Z,424.00
2023-01-04T05:17:17.378Z,425.00
2023-01-04T05:18:17.494Z,423.00
2023-01-04T05:19:17.657Z,423.00
2023-01-04T05:20:17.795Z,422.00
2023-01-04T05:21:20.295Z,420.00
2023-01-04T05:22:18.074Z,417.00
2023-01-04T05:23:18.211Z,419.00
2023-01-04T05:24:18.341Z,418.00
2023-01-04T05:25:18.464Z,416.00
2023-01-04T05:26:18.615Z,418.00
2023-01-04T05:27:18.767Z,419.00
2023-01-04T05:28:18.903Z,418.00
2023-01-04T05:29:19.033Z,421.00
2023-01-04T05:30:19.162Z,420.00
2023-01-04T05:31:19.396Z,422.00
2023-01-04T05:32:19.433Z,422.00
2023-01-04T05:33:19.601Z,420.00
2023-01-04T05:34:22.279Z,421.00
2023-01-04T05:35:19.857Z,420.00
2023-01-04T05:36:20.028Z,420.00
2023-01-04T05:37:20.143Z,423.00
2023-01-04T05:38:20.289Z,423.00
2023-01-04T05:39:20.423Z,424.00
2023-01-04T05:40:20.647Z,424.00
2023-01-04T05:41:20.683Z,425.00
2023-01-04T05:42:20.839Z,425.00
2023-01-04T05:43:20.980Z,424.00
2023-01-04T05:44:21.112Z,423.00
2023-01-04T05:45:21.264Z,421.00
2023-01-04T05:46:21.529Z,421.00
2023-01-04T05:47:21.541Z,420.00
2023-01-04T05:48:21.707Z,422.00
2023-01-04T05:49:21.820Z,421.00
2023-01-04T05:50:21.976Z,420.00
2023-01-04T05:51:22.124Z,420.00
2023-01-04T05:52:22.250Z,419.00
2023-01-04T05:53:22.402Z,422.00
2023-01-04T05:54:22.519Z,420.00
2023-01-04T05:55:22.681Z,420.00
2023-01-04T05:56:22.790Z,420.00
2023-01-04T05:57:22.945Z,419.00
2023-01-04T05:58:23.090Z,419.00
2023-01-04T05:59:23.218Z,420.00
2023-01-04T06:00:23.378Z,419.00
2023-01-04T06:01:23.474Z,419.00
2023-01-04T06:02:23.719Z,419.00
2023-01-04T06:03:23.930Z,419.00
2023-01-04T06:04:23.878Z,416.00
2023-01-04T06:05:24.011Z,418.00
2023-01-04T06:06:24.129Z,418.00
2023-01-04T06:07:24.315Z,417.00
2023-01-04T06:08:24.397Z,416.00
2023-01-04T06:09:24.535Z,414.00
2023-01-04T06:10:25.617Z,416.00
2023-01-04T06:11:27.697Z,416.00
2023-01-04T06:12:24.987Z,419.00
2023-01-04T06:13:25.155Z,420.00
2023-01-04T06:14:25.287Z,422.00
2023-01-04T06:15:25.442Z,423.00
2023-01-04T06:16:25.694Z,422.00
2023-01-04T06:17:25.725Z,421.00
2023-01-04T06:18:25.877Z,420.00
2023-01-04T06:19:26.017Z,419.00
2023-01-04T06:20:26.139Z,420.00
2023-01-04T06:21:26.276Z,423.00
2023-01-04T06:22:26.416Z,422.00
2023-01-04T06:23:26.595Z,421.00
2023-01-04T06:24:26.679Z,423.00
2023-01-04T06:25:26.822Z,423.00
2023-01-04T06:26:26.934Z,423.00
2023-01-04T06:27:27.119Z,422.00
2023-01-04T06:28:27.225Z,421.00
2023-01-04T06:29:27.344Z,420.00
2023-01-04T06:30:27.531Z,422.00
2023-01-04T06:31:27.693Z,421.00
2023-01-04T06:32:27.794Z,421.00
2023-01-04T06:33:27.903Z,423.00
2023-01-04T06:34:31.130Z,420.00
2023-01-04T06:35:28.177Z,421.00
2023-01-04T06:36:28.303Z,419.00
2023-01-04T06:37:28.455Z,419.00
2023-01-04T06:38:28.567Z,421.00
2023-01-04T06:39:28.707Z,422.00
2023-01-04T06:40:28.898Z,423.00
2023-01-04T06:41:29.928Z,423.00
2023-01-04T06:42:29.112Z,425.00
2023-01-04T06:43:29.243Z,426.00
2023-01-04T06:44:29.389Z,425.00
2023-01-04T06:45:30.488Z,424.00
2023-01-04T06:46:32.292Z,424.00
2023-01-04T06:47:29.784Z,423.00
2023-01-04T06:48:29.913Z,425.00
2023-01-04T06:49:34.011Z,425.00
2023-01-04T06:50:33.354Z,424.00
2023-01-04T06:51:30.325Z,424.00
2023-01-04T06:52:30.482Z,425.00
2023-01-04T06:53:30.614Z,424.00
2023-01-04T06:54:30.791Z,424.00
2023-01-04T06:55:30.921Z,426.00
2023-01-04T06:56:31.067Z,425.00
2023-01-04T06:57:31.191Z,426.00
2023-01-04T06:58:31.333Z,426.00
2023-01-04T06:59:31.471Z,427.00
2023-01-04T07:00:31.611Z,425.00
2023-01-04T07:01:31.944Z,428.00
2023-01-04T07:02:32.044Z,426.00
2023-01-04T07:03:31.992Z,422.00
2023-01-04T07:04:32.288Z,422.00
2023-01-04T07:05:32.287Z,423.00
2023-01-04T07:06:32.368Z,425.00
2023-01-04T07:07:32.499Z,423.00
2023-01-04T07:08:32.627Z,424.00
2023-01-04T07:09:32.769Z,425.00
2023-01-04T07:10:32.915Z,423.00
2023-01-04T07:11:33.038Z,423.00
2023-01-04T07:12:33.170Z,422.00
2023-01-04T07:13:33.319Z,424.00
2023-01-04T07:14:33.451Z,425.00
2023-01-04T07:15:38.516Z,423.00
2023-01-04T07:16:34.864Z,424.00
2023-01-04T07:17:33.852Z,422.00
2023-01-04T07:18:33.994Z,422.00
2023-01-04T07:19:34.144Z,422.00
2023-01-04T07:20:34.292Z,426.00
2023-01-04T07:21:34.447Z,427.00
2023-01-04T07:22:34.581Z,426.00
2023-01-04T07:23:34.726Z,427.00
2023-01-04T07:24:34.897Z,427.00
2023-01-04T07:25:34.989Z,427.00
2023-01-04T07:26:35.151Z,424.00
2023-01-04T07:27:35.299Z,423.00
2023-01-04T07:28:35.401Z,423.00
2023-01-04T07:29:35.556Z,424.00
2023-01-04T07:30:35.730Z,425.00
2023-01-04T07:31:35.870Z,426.00
2023-01-04T07:32:35.918Z,429.00
2023-01-04T07:33:36.159Z,430.00
2023-01-04T07:34:36.247Z,430.00
2023-01-04T07:35:36.305Z,431.00
2023-01-04T07:36:36.517Z,431.00
2023-01-04T07:37:36.616Z,430.00
2023-01-04T07:38:36.760Z,429.00
2023-01-04T07:39:36.916Z,431.00
2023-01-04T07:40:37.074Z,428.00
2023-01-04T07:41:38.224Z,428.00
2023-01-04T07:42:38.299Z,427.00
2023-01-04T07:43:37.499Z,427.00
2023-01-04T07:44:37.627Z,428.00
2023-01-04T07:45:37.805Z,427.00
2023-01-04T07:46:37.991Z,428.00
2023-01-04T07:47:39.008Z,427.00
2023-01-04T07:48:38.188Z,428.00
2023-01-04T07:49:38.327Z,425.00
2023-01-04T07:50:38.462Z,424.00
2023-01-04T07:51:38.626Z,421.00
2023-01-04T07:52:38.782Z,422.00
2023-01-04T07:53:38.934Z,421.00
2023-01-04T07:54:39.083Z,420.00
2023-01-04T07:55:39.282Z,419.00
2023-01-04T07:56:39.409Z,419.00
2023-01-04T07:57:40.492Z,421.00
2023-01-04T07:58:39.682Z,420.00
2023-01-04T07:59:39.796Z,420.00
2023-01-04T08:00:39.912Z,420.00
2023-01-04T08:01:40.090Z,421.00
2023-01-04T08:02:41.186Z,420.00
2023-01-04T08:03:40.281Z,420.00
2023-01-04T08:04:40.444Z,418.00
2023-01-04T08:05:40.479Z,418.00
2023-01-04T08:06:40.621Z,419.00
2023-01-04T08:07:40.804Z,420.00
2023-01-04T08:08:40.931Z,418.00
2023-01-04T08:09:41.080Z,419.00
2023-01-04T08:10:41.223Z,420.00
2023-01-04T08:11:41.380Z,424.00
2023-01-04T08:12:41.546Z,420.00
2023-01-04T08:13:41.690Z,423.00
2023-01-04T08:14:41.841Z,423.00
2023-01-04T08:15:42.030Z,425.00
2023-01-04T08:16:42.102Z,425.00
2023-01-04T08:17:42.251Z,429.00
2023-01-04T08:18:42.459Z,433.00
2023-01-04T08:19:42.599Z,433.00
2023-01-04T08:20:42.743Z,431.00
2023-01-04T08:21:42.895Z,429.00
2023-01-04T08:22:43.032Z,429.00
2023-01-04T08:23:43.179Z,430.00
2023-01-04T08:24:43.352Z,428.00
2023-01-04T08:25:43.499Z,430.00
2023-01-04T08:26:43.647Z,430.00
2023-01-04T08:27:43.797Z,428.00
2023-01-04T08:28:43.952Z,426.00
2023-01-04T08:29:44.100Z,424.00
2023-01-04T08:30:44.371Z,423.00
2023-01-04T08:31:44.396Z,422.00
2023-01-04T08:32:44.468Z,421.00
2023-01-04T08:33:44.557Z,423.00
2023-01-04T08:34:44.689Z,423.00
2023-01-04T08:35:44.837Z,425.00
2023-01-04T08:36:45.073Z,425.00
2023-01-04T08:37:45.129Z,427.00
2023-01-04T08:38:59.531Z,427.00
2023-01-04T08:39:49.226Z,428.00
2023-01-04T08:41:00.123Z,427.00
2023-01-04T08:41:57.836Z,427.00
2023-01-04T08:42:46.728Z,428.00
2023-01-04T08:43:45.880Z,430.00
2023-01-04T08:44:46.020Z,428.00
2023-01-04T08:45:46.166Z,429.00
2023-01-04T08:46:46.373Z,427.00
2023-01-04T08:47:46.435Z,425.00
2023-01-04T08:48:46.575Z,426.00
2023-01-04T08:49:46.725Z,426.00
2023-01-04T08:50:46.847Z,426.00
2023-01-04T08:51:46.950Z,425.00
2023-01-04T08:52:47.104Z,423.00
2023-01-04T08:53:47.245Z,424.00
2023-01-04T08:54:47.440Z,423.00
2023-01-04T08:55:47.525Z,422.00
2023-01-04T08:56:47.672Z,422.00
2023-01-04T08:57:47.773Z,421.00
2023-01-04T08:58:47.943Z,421.00
2023-01-04T08:59:48.084Z,422.00
2023-01-04T09:00:48.162Z,421.00
2023-01-04T09:01:48.523Z,419.00
2023-01-04T09:02:48.494Z,421.00
2023-01-04T09:03:48.593Z,422.00
2023-01-04T09:04:48.759Z,424.00
2023-01-04T09:05:48.908Z,425.00
2023-01-04T09:06:49.072Z,427.00
2023-01-04T09:07:49.201Z,426.00
2023-01-04T09:08:49.352Z,425.00
2023-01-04T09:09:49.516Z,422.00
2023-01-04T09:10:49.688Z,420.00
2023-01-04T09:11:49.821Z,419.00
2023-01-04T09:12:50.710Z,420.00
2023-01-04T09:13:50.121Z,419.00
2023-01-04T09:14:50.271Z,419.00
2023-01-04T09:15:51.358Z,420.00
2023-01-04T09:16:50.487Z,422.00
2023-01-04T09:18:20.492Z,422.00
2023-01-04T09:18:51.800Z,422.00
2023-01-04T09:19:50.952Z,423.00
2023-01-04T09:20:51.101Z,425.00
2023-01-04T09:21:51.347Z,426.00
2023-01-04T09:22:51.363Z,426.00
2023-01-04T09:23:51.530Z,426.00
2023-01-04T09:24:51.673Z,426.00
2023-01-04T09:25:51.822Z,425.00
2023-01-04T09:26:51.972Z,423.00
2023-01-04T09:27:52.109Z,423.00
2023-01-04T09:28:52.298Z,421.00
2023-01-04T09:29:52.395Z,420.00
2023-01-04T09:30:53.004Z,417.00
2023-01-04T09:31:52.673Z,417.00
2023-01-04T09:32:52.841Z,418.00
2023-01-04T09:34:54.149Z,420.00
2023-01-04T09:35:55.218Z,418.00
2023-01-04T09:36:53.441Z,418.00
2023-01-04T09:37:53.537Z,417.00
2023-01-04T09:38:53.699Z,421.00
2023-01-04T09:39:53.829Z,425.00
2023-01-04T09:40:53.901Z,427.00
2023-01-04T09:41:54.080Z,424.00
2023-01-04T09:43:19.973Z,423.00
2023-01-04T09:43:55.327Z,422.00
2023-01-04T09:45:22.556Z,420.00
2023-01-04T09:45:55.558Z,421.00
2023-01-04T09:46:54.754Z,421.00
2023-01-04T09:47:55.793Z,421.00
2023-01-04T09:48:54.957Z,424.00
2023-01-04T09:49:55.125Z,426.00
2023-01-04T09:50:55.230Z,427.00
2023-01-04T09:51:55.383Z,429.00
2023-01-04T09:52:55.545Z,428.00
2023-01-04T09:53:55.727Z,429.00
2023-01-04T09:54:59.002Z,430.00
2023-01-04T09:55:56.903Z,430.00
2023-01-04T09:56:56.052Z,433.00
2023-01-04T09:57:56.155Z,430.00
2023-01-04T09:58:56.314Z,428.00
2023-01-04T09:59:56.466Z,428.00
2023-01-04T10:00:56.652Z,427.00
2023-01-04T10:01:56.922Z,428.00
2023-01-04T10:13:21.336Z,474.00
2023-01-04T10:14:21.382Z,445.00
2023-01-04T10:15:21.503Z,442.00
2023-01-04T10:16:44.058Z,441.00
2023-01-04T10:17:44.464Z,444.00
2023-01-04T10:21:10.320Z,446.00
2023-01-04T10:21:32.677Z,449.00
2023-01-04T10:22:23.478Z,446.00
2023-01-04T10:23:22.765Z,446.00
2023-01-04T10:24:22.683Z,446.00
2023-01-04T10:25:22.788Z,447.00
2023-01-04T10:26:22.965Z,445.00
2023-01-04T10:27:23.049Z,445.00
2023-01-04T10:28:23.235Z,445.00
2023-01-04T10:29:23.361Z,443.00
2023-01-04T10:30:23.542Z,441.00
2023-01-04T10:31:40.550Z,440.00
2023-01-04T10:32:24.805Z,439.00
2023-01-04T10:33:23.875Z,441.00
2023-01-04T10:34:24.047Z,440.00
2023-01-04T10:35:24.183Z,439.00
2023-01-04T10:36:24.351Z,440.00
2023-01-04T10:37:24.444Z,439.00
2023-01-04T10:38:24.554Z,435.00
2023-01-04T10:39:32.028Z,434.00
2023-01-04T10:40:25.859Z,435.00
2023-01-04T10:41:25.008Z,435.00
2023-01-04T10:42:26.108Z,436.00
2023-01-04T10:43:25.323Z,435.00
2023-01-04T10:44:25.458Z,436.00
2023-01-04T10:45:25.617Z,437.00
2023-01-04T10:46:25.776Z,437.00
2023-01-04T10:47:25.926Z,436.00
2023-01-04T10:48:26.021Z,433.00
2023-01-04T10:49:26.149Z,436.00
2023-01-04T10:50:26.311Z,432.00
2023-01-04T10:51:26.417Z,430.00
2023-01-04T10:52:26.586Z,432.00
2023-01-04T10:53:26.688Z,433.00
2023-01-04T10:54:26.839Z,435.00
2023-01-04T10:55:26.994Z,433.00
2023-01-04T10:56:27.665Z,432.00
2023-01-04T10:57:27.267Z,431.00
2023-01-04T10:58:27.352Z,433.00
2023-01-04T10:59:27.526Z,432.00
2023-01-04T11:00:27.685Z,431.00
2023-01-04T11:01:27.955Z,432.00
2023-01-04T11:02:28.039Z,430.00
2023-01-04T11:03:28.161Z,431.00
2023-01-04T11:04:28.264Z,430.00
2023-01-04T11:05:28.405Z,431.00
2023-01-04T11:06:28.578Z,431.00
2023-01-04T11:07:28.728Z,431.00
2023-01-04T11:08:28.896Z,434.00
2023-01-04T11:09:29.065Z,435.00
2023-01-04T11:10:29.168Z,434.00
2023-01-04T11:11:29.305Z,435.00
2023-01-04T11:12:29.483Z,432.00
2023-01-04T11:13:29.564Z,434.00
2023-01-04T11:14:36.836Z,435.00
2023-01-04T11:15:30.868Z,432.00
2023-01-04T11:16:30.019Z,431.00
2023-01-04T11:17:30.117Z,431.00
2023-01-04T11:18:30.205Z,432.00
2023-01-04T11:19:30.348Z,431.00
2023-01-04T11:20:34.486Z,432.00
2023-01-04T11:21:31.637Z,432.00
2023-01-04T11:22:30.843Z,430.00
2023-01-04T11:23:30.951Z,428.00
2023-01-04T11:24:32.617Z,429.00
2023-01-04T11:25:35.768Z,429.00
2023-01-04T11:26:32.413Z,431.00
2023-01-04T11:27:31.546Z,429.00
2023-01-04T11:28:31.783Z,427.00
2023-01-04T11:29:31.861Z,426.00
2023-01-04T11:30:31.953Z,428.00
2023-01-04T11:31:32.152Z,427.00
2023-01-04T11:32:32.213Z,427.00
2023-01-04T11:33:32.321Z,427.00
2023-01-04T11:34:32.463Z,427.00
2023-01-04T11:35:36.425Z,429.00
2023-01-04T11:36:33.767Z,427.00
2023-01-04T11:37:32.905Z,427.00
2023-01-04T11:38:33.058Z,425.00
2023-01-04T11:39:33.209Z,425.00
2023-01-04T11:40:33.358Z,425.00
2023-01-04T11:41:33.513Z,425.00
2023-01-04T11:42:33.676Z,423.00
2023-01-04T11:43:33.812Z,423.00
2023-01-04T11:44:34.001Z,423.00
2023-01-04T11:45:34.140Z,423.00
2023-01-04T11:46:34.195Z,425.00
2023-01-04T11:47:34.266Z,424.00
2023-01-04T11:48:34.444Z,425.00
2023-01-04T11:49:34.590Z,426.00
2023-01-04T11:50:34.728Z,428.00
2023-01-04T11:51:34.878Z,428.00
2023-01-04T11:52:34.981Z,430.00
2023-01-04T11:53:35.139Z,430.00
2023-01-04T11:54:35.301Z,431.00
2023-01-04T11:55:35.442Z,430.00
2023-01-04T11:56:35.626Z,430.00
2023-01-04T11:57:35.788Z,429.00
2023-01-04T11:58:35.876Z,428.00
2023-01-04T11:59:35.983Z,428.00
2023-01-04T12:00:36.132Z,428.00
2023-01-04T12:01:36.345Z,431.00
2023-01-04T12:03:01.113Z,432.00
2023-01-04T12:03:37.540Z,433.00
2023-01-04T12:04:36.657Z,431.00
2023-01-04T12:05:36.760Z,430.00
2023-01-04T12:06:36.894Z,431.00
2023-01-04T12:07:37.044Z,431.00
2023-01-04T12:08:37.162Z,430.00
2023-01-04T12:09:37.254Z,428.00
2023-01-04T12:10:37.380Z,426.00
2023-01-04T12:11:37.558Z,425.00
2023-01-04T12:12:37.660Z,423.00
2023-01-04T12:13:37.818Z,425.00
2023-01-04T12:14:37.988Z,426.00
2023-01-04T12:15:38.100Z,427.00
2023-01-04T12:16:38.224Z,427.00
2023-01-04T12:17:43.012Z,425.00
2023-01-04T12:18:39.469Z,424.00
2023-01-04T12:19:38.574Z,425.00
2023-01-04T12:20:38.724Z,426.00
2023-01-04T12:21:38.880Z,429.00
2023-01-04T12:22:39.053Z,433.00
2023-01-04T12:23:39.197Z,431.00
2023-01-04T12:24:39.358Z,429.00
2023-01-04T12:25:39.538Z,430.00
2023-01-04T12:26:39.639Z,429.00
2023-01-04T12:27:39.725Z,429.00
2023-01-04T12:28:39.848Z,429.00
2023-01-04T12:29:40.007Z,432.00
2023-01-04T12:30:40.157Z,431.00
2023-01-04T12:31:40.340Z,429.00
2023-01-04T12:32:40.475Z,430.00
2023-01-04T12:33:40.646Z,429.00
2023-01-04T12:34:40.714Z,428.00
2023-01-04T12:35:40.860Z,427.00
2023-01-04T12:36:41.002Z,427.00
2023-01-04T12:37:41.085Z,427.00
2023-01-04T12:38:41.235Z,426.00
2023-01-04T12:39:41.382Z,426.00
2023-01-04T12:40:41.526Z,427.00
2023-01-04T12:41:41.684Z,426.00
2023-01-04T12:42:41.846Z,426.00
2023-01-04T12:43:46.929Z,426.00
2023-01-04T12:44:43.178Z,427.00
2023-01-04T12:45:43.372Z,425.00
2023-01-04T12:46:42.560Z,424.00
2023-01-04T12:47:42.603Z,427.00
2023-01-04T12:48:42.764Z,425.00
2023-01-04T12:49:42.913Z,423.00
2023-01-04T12:50:47.867Z,423.00
2023-01-04T12:51:58.396Z,426.00
2023-01-04T12:53:44.433Z,426.00
2023-01-04T12:54:43.583Z,426.00
2023-01-04T12:55:44.280Z,424.00
2023-01-04T12:56:43.905Z,423.00
2023-01-04T12:57:44.057Z,426.00
2023-01-04T12:59:23.719Z,427.00
2023-01-04T12:59:45.351Z,429.00
2023-01-04T13:00:44.484Z,430.00
2023-01-04T13:01:44.713Z,428.00
2023-01-04T13:02:44.961Z,427.00
2023-01-04T13:03:45.010Z,425.00
2023-01-04T13:04:45.048Z,423.00
2023-01-04T13:05:55.928Z,422.00
2023-01-04T13:06:46.299Z,423.00
2023-01-04T13:07:45.437Z,423.00
2023-01-04T13:08:45.567Z,422.00
2023-01-04T13:09:48.336Z,427.00
2023-01-04T13:10:45.834Z,428.00
2023-01-04T13:11:45.969Z,429.00
2023-01-04T13:12:46.121Z,431.00
2023-01-04T13:13:46.305Z,429.00
2023-01-04T13:14:46.391Z,429.00
2023-01-04T13:15:46.541Z,430.00
2023-01-04T13:16:46.745Z,428.00
2023-01-04T13:17:46.810Z,428.00
2023-01-04T13:18:46.959Z,426.00
2023-01-04T13:19:47.126Z,427.00
2023-01-04T13:20:47.261Z,426.00
2023-01-04T13:21:47.422Z,425.00
2023-01-04T13:22:47.594Z,423.00
2023-01-04T13:23:47.721Z,423.00
2023-01-04T13:24:47.892Z,423.00
2023-01-04T13:25:48.052Z,423.00
2023-01-04T13:26:48.139Z,424.00
2023-01-04T13:27:48.257Z,424.00
2023-01-04T13:28:51.269Z,426.00
2023-01-04T13:29:49.451Z,427.00
2023-01-04T13:30:48.689Z,427.00
2023-01-04T13:31:48.772Z,423.00
2023-01-04T13:33:24.356Z,423.00
2023-01-04T13:33:49.950Z,422.00
2023-01-04T13:34:49.091Z,421.00
2023-01-04T13:35:49.248Z,419.00
2023-01-04T13:36:49.347Z,419.00
2023-01-04T13:37:50.443Z,418.00
2023-01-04T13:38:49.619Z,418.00
2023-01-04T13:39:49.739Z,419.00
2023-01-04T13:40:50.032Z,418.00
2023-01-04T13:41:49.981Z,418.00
2023-01-04T13:42:51.067Z,420.00
2023-01-04T13:43:50.257Z,421.00
2023-01-04T13:45:18.596Z,422.00
2023-01-04T13:45:51.629Z,422.00
2023-01-04T13:46:50.768Z,426.00
2023-01-04T13:47:50.851Z,424.00
2023-01-04T13:48:51.020Z,424.00
2023-01-04T13:49:51.157Z,422.00
2023-01-04T13:50:51.275Z,421.00
2023-01-04T13:51:57.504Z,423.00
2023-01-04T13:53:05.759Z,424.00
2023-01-04T13:53:52.720Z,423.00
2023-01-04T13:54:51.879Z,422.00
2023-01-04T13:55:52.566Z,420.00
2023-01-04T13:56:55.725Z,420.00
2023-01-04T13:57:52.277Z,422.00
2023-01-04T13:58:52.404Z,424.00
2023-01-04T13:59:52.545Z,425.00
2023-01-04T14:00:52.793Z,424.00
2023-01-04T14:01:53.095Z,421.00
2023-01-04T14:02:53.140Z,420.00
2023-01-04T14:03:53.219Z,421.00
2023-01-04T14:04:53.278Z,422.00
2023-01-04T14:05:53.439Z,423.00
2023-01-04T14:06:53.537Z,424.00
2023-01-04T14:07:53.734Z,425.00
2023-01-04T14:08:53.848Z,425.00
2023-01-04T14:09:53.974Z,424.00
2023-01-04T14:10:54.156Z,422.00
2023-01-04T14:11:54.247Z,423.00
2023-01-04T14:12:54.415Z,424.00
2023-01-04T14:13:54.530Z,423.00
2023-01-04T14:14:54.667Z,422.00
2023-01-04T14:15:54.891Z,423.00
2023-01-04T14:16:54.956Z,421.00
2023-01-04T14:17:55.124Z,421.00
2023-01-04T14:18:55.283Z,422.00
2023-01-04T14:19:55.582Z,423.00
2023-01-04T14:20:55.631Z,423.00
2023-01-04T14:21:55.733Z,423.00
2023-01-04T14:22:55.875Z,423.00
2023-01-04T14:24:04.649Z,423.00
2023-01-04T14:25:11.483Z,424.00
2023-01-04T14:25:57.299Z,425.00
2023-01-04T14:26:56.402Z,425.00
2023-01-04T14:27:56.566Z,423.00
2023-01-04T14:28:56.700Z,426.00
2023-01-04T14:29:56.809Z,425.00
2023-01-04T14:30:57.041Z,425.00
2023-01-04T14:31:57.096Z,426.00
2023-01-04T14:32:57.196Z,427.00
2023-01-04T14:33:57.305Z,428.00
2023-01-04T14:34:57.458Z,426.00
2023-01-04T14:35:57.627Z,425.00
2023-01-04T14:36:57.745Z,425.00
2023-01-04T14:37:57.854Z,429.00
2023-01-04T14:38:57.958Z,428.00
2023-01-04T14:39:58.116Z,427.00
2023-01-04T14:40:58.268Z,425.00
2023-01-04T14:41:58.417Z,423.00
2023-01-04T14:42:58.585Z,423.00
2023-01-04T14:43:58.744Z,423.00
2023-01-04T14:44:58.903Z,423.00
2023-01-04T14:45:59.063Z,425.00
2023-01-04T14:46:59.285Z,423.00
2023-01-04T14:47:59.351Z,423.00
2023-01-04T14:48:59.503Z,426.00
2023-01-04T14:49:59.599Z,425.00
2023-01-04T14:50:59.752Z,426.00
2023-01-04T14:51:59.930Z,424.00
2023-01-04T14:53:00.098Z,425.00
2023-01-04T14:54:00.237Z,424.00
2023-01-04T14:55:00.377Z,424.00
2023-01-04T14:56:00.416Z,421.00
2023-01-04T14:57:00.595Z,419.00
2023-01-04T14:58:00.691Z,418.00
2023-01-04T14:59:00.789Z,416.00
2023-01-04T15:00:00.914Z,415.00
2023-01-04T15:01:02.010Z,413.00
2023-01-04T15:02:01.307Z,412.00
2023-01-04T15:03:01.612Z,413.00
2023-01-04T15:04:01.568Z,416.00
2023-01-04T15:05:01.651Z,415.00
2023-01-04T15:06:01.799Z,418.00
2023-01-04T15:07:01.878Z,420.00
2023-01-04T15:08:02.051Z,422.00
2023-01-04T15:09:02.150Z,422.00
2023-01-04T15:10:02.306Z,423.00
2023-01-04T15:11:02.468Z,423.00
2023-01-04T15:12:02.533Z,425.00
2023-01-04T15:13:02.667Z,421.00
2023-01-04T15:14:02.817Z,419.00
2023-01-04T15:15:03.006Z,418.00
2023-01-04T15:16:03.203Z,415.00
2023-01-04T15:17:03.262Z,416.00
2023-01-04T15:18:03.376Z,414.00
2023-01-04T15:19:03.525Z,414.00
2023-01-04T15:20:03.596Z,414.00
2023-01-04T15:21:03.764Z,415.00
2023-01-04T15:22:03.851Z,417.00
2023-01-04T15:23:04.021Z,416.00
2023-01-04T15:24:04.121Z,418.00
2023-01-04T15:25:04.237Z,418.00
2023-01-04T15:26:04.331Z,417.00
2023-01-04T15:27:04.513Z,413.00
2023-01-04T15:28:04.654Z,415.00
2023-01-04T15:29:04.767Z,416.00
2023-01-04T15:30:04.871Z,415.00
2023-01-04T15:31:05.156Z,416.00
2023-01-04T15:32:05.206Z,418.00
2023-01-04T15:33:05.318Z,418.00
2023-01-04T15:34:05.446Z,419.00
2023-01-04T15:35:05.580Z,420.00
2023-01-04T15:36:05.751Z,421.00
2023-01-04T15:37:05.837Z,422.00
2023-01-04T15:38:06.754Z,422.00
2023-01-04T15:39:06.090Z,424.00
2023-01-04T15:40:06.318Z,426.00
2023-01-04T15:41:06.465Z,422.00
2023-01-04T15:42:06.503Z,420.00
2023-01-04T15:43:06.701Z,419.00
2023-01-04T15:44:06.825Z,418.00
2023-01-04T15:45:07.000Z,417.00
2023-01-04T15:46:07.450Z,418.00
2023-01-04T15:47:07.352Z,418.00
2023-01-04T15:48:07.407Z,417.00
2023-01-04T15:49:13.369Z,417.00
2023-01-04T15:50:08.695Z,421.00
2023-01-04T15:51:07.984Z,420.00
2023-01-04T15:52:08.014Z,422.00
2023-01-04T15:53:08.099Z,422.00
2023-01-04T15:54:08.239Z,422.00
2023-01-04T15:55:08.389Z,423.00
2023-01-04T15:56:08.559Z,423.00
2023-01-04T15:57:08.712Z,424.00
2023-01-04T15:58:08.840Z,425.00
2023-01-04T15:59:09.911Z,425.00
2023-01-04T16:00:09.083Z,423.00
2023-01-04T16:01:09.377Z,421.00
2023-01-04T16:12:33.617Z,471.00
2023-01-04T16:13:33.677Z,435.00
2023-01-04T16:14:33.848Z,433.00
2023-01-04T16:15:33.938Z,431.00
2023-01-04T16:16:34.159Z,434.00
2023-01-04T16:17:34.211Z,438.00
2023-01-04T16:18:34.347Z,435.00
2023-01-04T16:19:34.492Z,435.00
2023-01-04T16:20:34.615Z,434.00
2023-01-04T16:21:34.758Z,433.00
2023-01-04T16:22:34.911Z,432.00
2023-01-04T16:23:35.042Z,433.00
2023-01-04T16:25:09.240Z,434.00
2023-01-04T16:25:36.362Z,435.00
2023-01-04T16:26:35.499Z,436.00
2023-01-04T16:27:35.961Z,437.00
2023-01-04T16:28:35.768Z,438.00
2023-01-04T16:29:35.884Z,436.00
2023-01-04T16:30:36.038Z,436.00
2023-01-04T16:31:36.250Z,440.00
2023-01-04T16:32:36.316Z,441.00
2023-01-04T16:33:36.461Z,440.00
2023-01-04T16:34:36.583Z,438.00
2023-01-04T16:35:36.750Z,438.00
2023-01-04T16:36:36.896Z,437.00
2023-01-04T16:37:37.053Z,435.00
2023-01-04T16:38:37.229Z,435.00
2023-01-04T16:40:38.465Z,431.00
2023-01-04T16:41:37.639Z,431.00
2023-01-04T16:42:37.967Z,431.00
2023-01-04T16:43:37.922Z,432.00
2023-01-04T16:44:38.091Z,429.00
2023-01-04T16:45:38.209Z,429.00
2023-01-04T16:46:38.359Z,429.00
2023-01-04T16:47:38.449Z,427.00
2023-01-04T16:48:38.638Z,427.00
2023-01-04T16:49:38.747Z,426.00
2023-01-04T16:50:38.881Z,426.00
2023-01-04T16:51:39.028Z,427.00
2023-01-04T16:52:39.173Z,425.00
2023-01-04T16:53:39.330Z,426.00
2023-01-04T16:54:39.433Z,427.00